sensor_id;sensor_type;location;lat;lon;timestamp;temperature;humidity
36716;DHT22;22699;51.034;3.730;2022-11-14T00:00:51;8.50;99.90
36716;DHT22;22699;51.034;3.730;2022-11-14T00:03:17;8.50;99.90
36716;DHT22;22699;51.034;3.730;2022-11-14T00:05:44;8.40;99.90
36716;DHT22;22699;51.034;3.730;2022-11-14T00:08:17;8.50;99.90
36716;DHT22;22699;51.034;3.730;2022-11-14T00:10:49;8.50;99.90
36716;DHT22;22699;51.034;3.730;2022-11-14T00:13:15;8.50;99.90
36716;DHT22;22699;51.034;3.730;2022-11-14T00:15:41;8.50;99.90
36716;DHT22;22699;51.034;3.730;2022-11-14T00:18:07;8.50;99.90
36716;DHT22;22699;51.034;3.730;2022-11-14T00:20:33;8.50;99.90
36716;DHT22;22699;51.034;3.730;2022-11-14T00:22:58;8.50;99.90
36716;DHT22;22699;51.034;3.730;2022-11-14T00:25:24;8.40;99.90
36716;DHT22;22699;51.034;3.730;2022-11-14T00:27:50;8.40;99.90
36716;DHT22;22699;51.034;3.730;2022-11-14T00:30:15;8.30;99.90
36716;DHT22;22699;51.034;3.730;2022-11-14T00:32:41;8.40;99.90
36716;DHT22;22699;51.034;3.730;2022-11-14T00:35:07;8.40;99.90
36716;DHT22;22699;51.034;3.730;2022-11-14T00:37:33;8.30;99.90
36716;DHT22;22699;51.034;3.730;2022-11-14T00:39:59;8.30;99.90
36716;DHT22;22699;51.034;3.730;2022-11-14T00:42:25;8.30;99.90
36716;DHT22;22699;51.034;3.730;2022-11-14T00:44:50;8.30;99.90
36716;DHT22;22699;51.034;3.730;2022-11-14T00:47:16;8.30;99.90
36716;DHT22;22699;51.034;3.730;2022-11-14T00:49:42;8.20;99.90
36716;DHT22;22699;51.034;3.730;2022-11-14T00:52:07;8.30;99.90
36716;DHT22;22699;51.034;3.730;2022-11-14T00:54:33;8.30;99.90
36716;DHT22;22699;51.034;3.730;2022-11-14T00:56:58;8.30;99.90
36716;DHT22;22699;51.034;3.730;2022-11-14T00:59:24;8.20;99.90
36716;DHT22;22699;51.034;3.730;2022-11-14T01:01:49;8.30;99.90
36716;DHT22;22699;51.034;3.730;2022-11-14T01:04:15;8.20;99.90
36716;DHT22;22699;51.034;3.730;2022-11-14T01:06:41;8.10;99.90
36716;DHT22;22699;51.034;3.730;2022-11-14T01:09:07;8.00;99.90
36716;DHT22;22699;51.034;3.730;2022-11-14T01:11:33;8.00;99.90
36716;DHT22;22699;51.034;3.730;2022-11-14T01:13:59;8.00;99.90
36716;DHT22;22699;51.034;3.730;2022-11-14T01:16:24;7.90;99.90
36716;DHT22;22699;51.034;3.730;2022-11-14T01:18:50;7.80;99.90
36716;DHT22;22699;51.034;3.730;2022-11-14T01:21:16;7.80;99.90
36716;DHT22;22699;51.034;3.730;2022-11-14T01:23:42;7.90;99.90
36716;DHT22;22699;51.034;3.730;2022-11-14T01:26:12;8.00;99.90
36716;DHT22;22699;51.034;3.730;2022-11-14T01:28:39;8.00;99.90
36716;DHT22;22699;51.034;3.730;2022-11-14T01:31:14;7.90;99.90
36716;DHT22;22699;51.034;3.730;2022-11-14T01:33:41;7.80;99.90
36716;DHT22;22699;51.034;3.730;2022-11-14T01:36:07;7.70;99.90
36716;DHT22;22699;51.034;3.730;2022-11-14T01:38:33;7.60;99.90
36716;DHT22;22699;51.034;3.730;2022-11-14T01:40:59;7.60;99.90
36716;DHT22;22699;51.034;3.730;2022-11-14T01:43:27;7.50;99.90
36716;DHT22;22699;51.034;3.730;2022-11-14T01:46:02;7.40;99.90
36716;DHT22;22699;51.034;3.730;2022-11-14T01:48:51;7.40;99.90
36716;DHT22;22699;51.034;3.730;2022-11-14T01:51:33;7.30;99.90
36716;DHT22;22699;51.034;3.730;2022-11-14T01:54:08;7.30;99.90
36716;DHT22;22699;51.034;3.730;2022-11-14T01:56:41;7.30;99.90
36716;DHT22;22699;51.034;3.730;2022-11-14T01:59:14;7.30;99.90
36716;DHT22;22699;51.034;3.730;2022-11-14T02:01:47;7.30;99.90
36716;DHT22;22699;51.034;3.730;2022-11-14T02:04:21;7.30;99.90
36716;DHT22;22699;51.034;3.730;2022-11-14T02:06:47;7.20;99.90
36716;DHT22;22699;51.034;3.730;2022-11-14T02:09:13;7.10;99.90
36716;DHT22;22699;51.034;3.730;2022-11-14T02:11:41;7.00;99.90
36716;DHT22;22699;51.034;3.730;2022-11-14T02:14:07;7.00;99.90
36716;DHT22;22699;51.034;3.730;2022-11-14T02:16:34;6.90;99.90
36716;DHT22;22699;51.034;3.730;2022-11-14T02:19:00;6.80;99.90
36716;DHT22;22699;51.034;3.730;2022-11-14T02:21:26;6.80;99.90
36716;DHT22;22699;51.034;3.730;2022-11-14T02:23:53;6.90;99.90
36716;DHT22;22699;51.034;3.730;2022-11-14T02:26:20;6.90;99.90
36716;DHT22;22699;51.034;3.730;2022-11-14T02:28:46;6.90;99.90
36716;DHT22;22699;51.034;3.730;2022-11-14T02:31:13;6.90;99.90
36716;DHT22;22699;51.034;3.730;2022-11-14T02:33:39;7.00;99.90
36716;DHT22;22699;51.034;3.730;2022-11-14T02:36:05;6.90;99.90
36716;DHT22;22699;51.034;3.730;2022-11-14T02:38:31;6.90;99.90
36716;DHT22;22699;51.034;3.730;2022-11-14T02:40:59;6.90;99.90
36716;DHT22;22699;51.034;3.730;2022-11-14T02:43:25;6.90;99.90
36716;DHT22;22699;51.034;3.730;2022-11-14T02:45:50;6.90;99.90
36716;DHT22;22699;51.034;3.730;2022-11-14T02:48:16;6.90;99.90
36716;DHT22;22699;51.034;3.730;2022-11-14T02:50:42;6.90;99.90
36716;DHT22;22699;51.034;3.730;2022-11-14T02:53:08;6.90;99.90
36716;DHT22;22699;51.034;3.730;2022-11-14T02:55:34;6.90;99.90
36716;DHT22;22699;51.034;3.730;2022-11-14T02:57:59;6.80;99.90
36716;DHT22;22699;51.034;3.730;2022-11-14T03:00:25;6.80;99.90
36716;DHT22;22699;51.034;3.730;2022-11-14T03:02:54;6.80;99.90
36716;DHT22;22699;51.034;3.730;2022-11-14T03:05:20;6.80;99.90
36716;DHT22;22699;51.034;3.730;2022-11-14T03:07:46;6.80;99.90
36716;DHT22;22699;51.034;3.730;2022-11-14T03:10:14;6.80;99.90
36716;DHT22;22699;51.034;3.730;2022-11-14T03:12:41;6.80;99.90
36716;DHT22;22699;51.034;3.730;2022-11-14T03:15:07;6.70;99.90
36716;DHT22;22699;51.034;3.730;2022-11-14T03:17:33;6.70;99.90
36716;DHT22;22699;51.034;3.730;2022-11-14T03:20:00;6.70;99.90
36716;DHT22;22699;51.034;3.730;2022-11-14T03:22:26;6.80;99.90
36716;DHT22;22699;51.034;3.730;2022-11-14T03:24:52;6.90;99.90
36716;DHT22;22699;51.034;3.730;2022-11-14T03:27:18;6.90;99.90
36716;DHT22;22699;51.034;3.730;2022-11-14T03:29:44;6.90;99.90
36716;DHT22;22699;51.034;3.730;2022-11-14T03:32:09;7.00;99.90
36716;DHT22;22699;51.034;3.730;2022-11-14T03:34:35;7.10;99.90
36716;DHT22;22699;51.034;3.730;2022-11-14T03:37:00;7.20;99.90
36716;DHT22;22699;51.034;3.730;2022-11-14T03:39:26;7.30;99.90
36716;DHT22;22699;51.034;3.730;2022-11-14T03:41:52;7.30;99.90
36716;DHT22;22699;51.034;3.730;2022-11-14T03:44:17;7.30;99.90
36716;DHT22;22699;51.034;3.730;2022-11-14T03:46:43;7.30;99.90
36716;DHT22;22699;51.034;3.730;2022-11-14T03:49:09;7.30;99.90
36716;DHT22;22699;51.034;3.730;2022-11-14T03:51:35;7.10;99.90
36716;DHT22;22699;51.034;3.730;2022-11-14T03:54:00;7.10;99.90
36716;DHT22;22699;51.034;3.730;2022-11-14T03:56:26;7.00;99.90
36716;DHT22;22699;51.034;3.730;2022-11-14T03:58:51;7.00;99.90
36716;DHT22;22699;51.034;3.730;2022-11-14T04:01:17;6.90;99.90
36716;DHT22;22699;51.034;3.730;2022-11-14T04:03:43;6.80;99.90
36716;DHT22;22699;51.034;3.730;2022-11-14T04:06:08;6.80;99.90
36716;DHT22;22699;51.034;3.730;2022-11-14T04:08:34;6.80;99.90
36716;DHT22;22699;51.034;3.730;2022-11-14T04:11:00;6.80;99.90
36716;DHT22;22699;51.034;3.730;2022-11-14T04:13:26;6.70;99.90
36716;DHT22;22699;51.034;3.730;2022-11-14T04:15:56;6.70;99.90
36716;DHT22;22699;51.034;3.730;2022-11-14T04:18:23;6.60;99.90
36716;DHT22;22699;51.034;3.730;2022-11-14T04:20:49;6.60;99.90
36716;DHT22;22699;51.034;3.730;2022-11-14T04:23:14;6.60;99.90
36716;DHT22;22699;51.034;3.730;2022-11-14T04:25:45;6.50;99.90
36716;DHT22;22699;51.034;3.730;2022-11-14T04:28:11;6.50;99.90
36716;DHT22;22699;51.034;3.730;2022-11-14T04:30:37;6.50;99.90
36716;DHT22;22699;51.034;3.730;2022-11-14T04:33:03;6.50;99.90
36716;DHT22;22699;51.034;3.730;2022-11-14T04:35:28;6.50;99.90
36716;DHT22;22699;51.034;3.730;2022-11-14T04:37:54;6.40;99.90
36716;DHT22;22699;51.034;3.730;2022-11-14T04:40:21;6.40;99.90
36716;DHT22;22699;51.034;3.730;2022-11-14T04:42:47;6.40;99.90
36716;DHT22;22699;51.034;3.730;2022-11-14T04:45:13;6.40;99.90
36716;DHT22;22699;51.034;3.730;2022-11-14T04:47:40;6.40;99.90
36716;DHT22;22699;51.034;3.730;2022-11-14T04:50:06;6.30;99.90
36716;DHT22;22699;51.034;3.730;2022-11-14T04:52:32;6.30;99.90
36716;DHT22;22699;51.034;3.730;2022-11-14T04:54:58;6.20;99.90
36716;DHT22;22699;51.034;3.730;2022-11-14T04:57:23;6.30;99.90
36716;DHT22;22699;51.034;3.730;2022-11-14T04:59:49;6.20;99.90
36716;DHT22;22699;51.034;3.730;2022-11-14T05:02:15;6.20;99.90
36716;DHT22;22699;51.034;3.730;2022-11-14T05:04:40;6.20;99.90
36716;DHT22;22699;51.034;3.730;2022-11-14T05:07:06;6.20;99.90
36716;DHT22;22699;51.034;3.730;2022-11-14T05:09:32;6.20;99.90
36716;DHT22;22699;51.034;3.730;2022-11-14T05:11:57;6.20;99.90
36716;DHT22;22699;51.034;3.730;2022-11-14T05:14:23;6.20;99.90
36716;DHT22;22699;51.034;3.730;2022-11-14T05:16:49;6.20;99.90
36716;DHT22;22699;51.034;3.730;2022-11-14T05:19:15;6.20;99.90
36716;DHT22;22699;51.034;3.730;2022-11-14T05:21:40;6.30;99.90
36716;DHT22;22699;51.034;3.730;2022-11-14T05:24:06;6.20;99.90
36716;DHT22;22699;51.034;3.730;2022-11-14T05:26:32;6.30;99.90
36716;DHT22;22699;51.034;3.730;2022-11-14T05:28:57;6.30;99.90
36716;DHT22;22699;51.034;3.730;2022-11-14T05:31:25;6.40;99.90
36716;DHT22;22699;51.034;3.730;2022-11-14T05:33:51;6.30;99.90
36716;DHT22;22699;51.034;3.730;2022-11-14T05:36:17;6.40;99.90
36716;DHT22;22699;51.034;3.730;2022-11-14T05:38:43;6.40;99.90
36716;DHT22;22699;51.034;3.730;2022-11-14T05:41:11;6.40;99.90
36716;DHT22;22699;51.034;3.730;2022-11-14T05:43:37;6.50;99.90
36716;DHT22;22699;51.034;3.730;2022-11-14T05:46:05;6.50;99.90
36716;DHT22;22699;51.034;3.730;2022-11-14T05:48:31;6.50;99.90
36716;DHT22;22699;51.034;3.730;2022-11-14T05:50:58;6.60;99.90
36716;DHT22;22699;51.034;3.730;2022-11-14T05:53:24;6.60;99.90
36716;DHT22;22699;51.034;3.730;2022-11-14T05:55:51;6.60;99.90
36716;DHT22;22699;51.034;3.730;2022-11-14T05:58:16;6.60;99.90
36716;DHT22;22699;51.034;3.730;2022-11-14T06:00:42;6.60;99.90
36716;DHT22;22699;51.034;3.730;2022-11-14T06:03:08;6.50;99.90
36716;DHT22;22699;51.034;3.730;2022-11-14T06:05:34;6.50;99.90
36716;DHT22;22699;51.034;3.730;2022-11-14T06:08:01;6.60;99.90
36716;DHT22;22699;51.034;3.730;2022-11-14T06:10:27;6.60;99.90
36716;DHT22;22699;51.034;3.730;2022-11-14T06:12:52;6.50;99.90
36716;DHT22;22699;51.034;3.730;2022-11-14T06:15:19;6.50;99.90
36716;DHT22;22699;51.034;3.730;2022-11-14T06:17:45;6.40;99.90
36716;DHT22;22699;51.034;3.730;2022-11-14T06:20:10;6.40;99.90
36716;DHT22;22699;51.034;3.730;2022-11-14T06:22:39;6.30;99.90
36716;DHT22;22699;51.034;3.730;2022-11-14T06:25:04;6.30;99.90
36716;DHT22;22699;51.034;3.730;2022-11-14T06:27:31;6.30;99.90
36716;DHT22;22699;51.034;3.730;2022-11-14T06:29:59;6.30;99.90
36716;DHT22;22699;51.034;3.730;2022-11-14T06:32:25;6.30;99.90
36716;DHT22;22699;51.034;3.730;2022-11-14T06:34:50;6.30;99.90
36716;DHT22;22699;51.034;3.730;2022-11-14T06:37:16;6.30;99.90
36716;DHT22;22699;51.034;3.730;2022-11-14T06:39:43;6.30;99.90
36716;DHT22;22699;51.034;3.730;2022-11-14T06:42:08;6.30;99.90
36716;DHT22;22699;51.034;3.730;2022-11-14T06:44:34;6.30;99.90
36716;DHT22;22699;51.034;3.730;2022-11-14T06:47:03;6.30;99.90
36716;DHT22;22699;51.034;3.730;2022-11-14T06:49:28;6.30;99.90
36716;DHT22;22699;51.034;3.730;2022-11-14T06:51:54;6.40;99.90
36716;DHT22;22699;51.034;3.730;2022-11-14T06:54:19;6.40;99.90
36716;DHT22;22699;51.034;3.730;2022-11-14T06:56:45;6.40;99.90
36716;DHT22;22699;51.034;3.730;2022-11-14T06:59:11;6.40;99.90
36716;DHT22;22699;51.034;3.730;2022-11-14T07:01:37;6.30;99.90
36716;DHT22;22699;51.034;3.730;2022-11-14T07:04:03;6.30;99.90
36716;DHT22;22699;51.034;3.730;2022-11-14T07:06:30;6.20;99.90
36716;DHT22;22699;51.034;3.730;2022-11-14T07:08:56;6.20;99.90
36716;DHT22;22699;51.034;3.730;2022-11-14T07:11:24;6.20;99.90
36716;DHT22;22699;51.034;3.730;2022-11-14T07:13:59;6.10;99.90
36716;DHT22;22699;51.034;3.730;2022-11-14T07:16:27;6.20;99.90
36716;DHT22;22699;51.034;3.730;2022-11-14T07:18:57;6.20;99.90
36716;DHT22;22699;51.034;3.730;2022-11-14T07:21:24;6.30;99.90
36716;DHT22;22699;51.034;3.730;2022-11-14T07:23:50;6.40;99.90
36716;DHT22;22699;51.034;3.730;2022-11-14T07:26:17;6.40;99.90
36716;DHT22;22699;51.034;3.730;2022-11-14T07:28:44;6.70;99.90
36716;DHT22;22699;51.034;3.730;2022-11-14T07:31:12;7.40;99.90
36716;DHT22;22699;51.034;3.730;2022-11-14T07:33:38;8.60;99.90
36716;DHT22;22699;51.034;3.730;2022-11-14T07:36:05;10.00;99.90
36716;DHT22;22699;51.034;3.730;2022-11-14T07:38:32;11.30;99.90
36716;DHT22;22699;51.034;3.730;2022-11-14T07:41:01;12.60;99.90
36716;DHT22;22699;51.034;3.730;2022-11-14T07:43:27;13.70;99.90
36716;DHT22;22699;51.034;3.730;2022-11-14T07:45:57;14.50;99.90
36716;DHT22;22699;51.034;3.730;2022-11-14T07:48:24;15.50;99.90
36716;DHT22;22699;51.034;3.730;2022-11-14T07:50:49;16.20;99.90
36716;DHT22;22699;51.034;3.730;2022-11-14T07:53:15;16.80;99.40
36716;DHT22;22699;51.034;3.730;2022-11-14T07:55:42;17.10;96.30
36716;DHT22;22699;51.034;3.730;2022-11-14T07:58:08;17.30;94.80
36716;DHT22;22699;51.034;3.730;2022-11-14T08:00:34;17.50;92.80
36716;DHT22;22699;51.034;3.730;2022-11-14T08:02:59;17.60;92.20
36716;DHT22;22699;51.034;3.730;2022-11-14T08:05:25;17.60;90.70
36716;DHT22;22699;51.034;3.730;2022-11-14T08:07:51;17.90;90.00
36716;DHT22;22699;51.034;3.730;2022-11-14T08:10:18;18.10;87.50
36716;DHT22;22699;51.034;3.730;2022-11-14T08:12:44;18.60;87.00
36716;DHT22;22699;51.034;3.730;2022-11-14T08:15:12;19.10;84.20
36716;DHT22;22699;51.034;3.730;2022-11-14T08:17:39;19.50;82.30
36716;DHT22;22699;51.034;3.730;2022-11-14T08:20:06;19.30;81.50
36716;DHT22;22699;51.034;3.730;2022-11-14T08:22:32;19.60;80.40
36716;DHT22;22699;51.034;3.730;2022-11-14T08:24:58;19.50;79.10
36716;DHT22;22699;51.034;3.730;2022-11-14T08:27:24;19.70;78.20
36716;DHT22;22699;51.034;3.730;2022-11-14T08:29:49;20.00;77.40
36716;DHT22;22699;51.034;3.730;2022-11-14T08:32:18;20.50;75.90
36716;DHT22;22699;51.034;3.730;2022-11-14T08:34:44;20.90;74.60
36716;DHT22;22699;51.034;3.730;2022-11-14T08:37:09;20.90;73.00
36716;DHT22;22699;51.034;3.730;2022-11-14T08:39:35;20.60;73.50
36716;DHT22;22699;51.034;3.730;2022-11-14T08:42:01;21.30;72.10
36716;DHT22;22699;51.034;3.730;2022-11-14T08:44:26;21.50;71.10
36716;DHT22;22699;51.034;3.730;2022-11-14T08:46:52;21.80;69.90
36716;DHT22;22699;51.034;3.730;2022-11-14T08:49:17;21.70;69.90
36716;DHT22;22699;51.034;3.730;2022-11-14T08:51:43;21.30;69.90
36716;DHT22;22699;51.034;3.730;2022-11-14T08:54:10;21.50;70.10
36716;DHT22;22699;51.034;3.730;2022-11-14T08:56:36;21.10;70.20
36716;DHT22;22699;51.034;3.730;2022-11-14T08:59:04;20.90;70.30
36716;DHT22;22699;51.034;3.730;2022-11-14T09:01:30;20.50;70.90
36716;DHT22;22699;51.034;3.730;2022-11-14T09:03:58;19.60;72.40
36716;DHT22;22699;51.034;3.730;2022-11-14T09:06:24;18.80;73.80
36716;DHT22;22699;51.034;3.730;2022-11-14T09:08:49;17.70;76.00
36716;DHT22;22699;51.034;3.730;2022-11-14T09:11:15;15.90;79.80
36716;DHT22;22699;51.034;3.730;2022-11-14T09:13:41;14.70;84.40
36716;DHT22;22699;51.034;3.730;2022-11-14T09:16:07;14.50;86.30
36716;DHT22;22699;51.034;3.730;2022-11-14T09:18:32;13.50;88.90
36716;DHT22;22699;51.034;3.730;2022-11-14T09:21:02;12.40;91.30
36716;DHT22;22699;51.034;3.730;2022-11-14T09:23:29;12.00;93.10
36716;DHT22;22699;51.034;3.730;2022-11-14T09:25:54;11.80;93.30
36716;DHT22;22699;51.034;3.730;2022-11-14T09:28:22;11.60;94.00
36716;DHT22;22699;51.034;3.730;2022-11-14T09:30:48;11.00;95.50
36716;DHT22;22699;51.034;3.730;2022-11-14T09:33:14;10.50;96.90
36716;DHT22;22699;51.034;3.730;2022-11-14T09:35:39;10.30;98.30
36716;DHT22;22699;51.034;3.730;2022-11-14T09:38:07;9.90;99.70
36716;DHT22;22699;51.034;3.730;2022-11-14T09:46:36;9.60;99.90
36716;DHT22;22699;51.034;3.730;2022-11-14T09:49:10;9.60;99.90
36716;DHT22;22699;51.034;3.730;2022-11-14T09:51:46;9.40;99.90
36716;DHT22;22699;51.034;3.730;2022-11-14T09:54:24;9.50;99.90
36716;DHT22;22699;51.034;3.730;2022-11-14T09:56:51;9.40;99.90
36716;DHT22;22699;51.034;3.730;2022-11-14T09:59:17;9.30;99.90
36716;DHT22;22699;51.034;3.730;2022-11-14T10:15:31;9.50;99.90
36716;DHT22;22699;51.034;3.730;2022-11-14T10:18:14;9.50;99.90
36716;DHT22;22699;51.034;3.730;2022-11-14T10:20:54;9.40;99.90
36716;DHT22;22699;51.034;3.730;2022-11-14T10:24:16;9.50;99.90
36716;DHT22;22699;51.034;3.730;2022-11-14T10:26:37;9.70;99.90
36716;DHT22;22699;51.034;3.730;2022-11-14T10:35:13;9.50;99.90
36716;DHT22;22699;51.034;3.730;2022-11-14T10:37:43;9.50;99.90
36716;DHT22;22699;51.034;3.730;2022-11-14T10:42:45;9.60;99.90
36716;DHT22;22699;51.034;3.730;2022-11-14T10:45:25;9.40;99.90
36716;DHT22;22699;51.034;3.730;2022-11-14T10:48:14;9.40;99.90
36716;DHT22;22699;51.034;3.730;2022-11-14T10:50:58;9.50;99.90
36716;DHT22;22699;51.034;3.730;2022-11-14T10:56:07;9.60;99.90
36716;DHT22;22699;51.034;3.730;2022-11-14T10:58:34;9.60;99.90
36716;DHT22;22699;51.034;3.730;2022-11-14T11:04:18;9.60;99.90
36716;DHT22;22699;51.034;3.730;2022-11-14T11:06:46;9.60;99.90
36716;DHT22;22699;51.034;3.730;2022-11-14T11:09:23;9.60;99.90
36716;DHT22;22699;51.034;3.730;2022-11-14T11:12:16;9.60;99.90
36716;DHT22;22699;51.034;3.730;2022-11-14T11:14:47;9.60;99.90
36716;DHT22;22699;51.034;3.730;2022-11-14T11:19:42;9.60;99.90
36716;DHT22;22699;51.034;3.730;2022-11-14T11:22:36;9.40;99.90
36716;DHT22;22699;51.034;3.730;2022-11-14T11:25:24;9.40;99.90
36716;DHT22;22699;51.034;3.730;2022-11-14T11:28:11;9.20;99.90
36716;DHT22;22699;51.034;3.730;2022-11-14T11:30:38;9.30;99.90
36716;DHT22;22699;51.034;3.730;2022-11-14T11:35:48;9.30;99.90
36716;DHT22;22699;51.034;3.730;2022-11-14T11:38:18;9.50;99.90
36716;DHT22;22699;51.034;3.730;2022-11-14T11:40:47;9.40;99.90
36716;DHT22;22699;51.034;3.730;2022-11-14T11:45:48;9.20;99.90
36716;DHT22;22699;51.034;3.730;2022-11-14T11:48:22;8.90;99.90
36716;DHT22;22699;51.034;3.730;2022-11-14T11:50:50;8.80;99.90
36716;DHT22;22699;51.034;3.730;2022-11-14T11:53:26;8.90;99.90
36716;DHT22;22699;51.034;3.730;2022-11-14T11:55:58;8.80;99.90
36716;DHT22;22699;51.034;3.730;2022-11-14T12:01:02;8.70;99.90
36716;DHT22;22699;51.034;3.730;2022-11-14T12:03:28;8.60;99.90
36716;DHT22;22699;51.034;3.730;2022-11-14T12:11:26;8.60;99.90
36716;DHT22;22699;51.034;3.730;2022-11-14T12:14:04;8.60;99.90
36716;DHT22;22699;51.034;3.730;2022-11-14T12:16:40;8.60;99.90
36716;DHT22;22699;51.034;3.730;2022-11-14T12:28:17;8.20;99.90
36716;DHT22;22699;51.034;3.730;2022-11-14T12:30:47;8.30;99.90
36716;DHT22;22699;51.034;3.730;2022-11-14T12:33:28;9.20;99.90
36716;DHT22;22699;51.034;3.730;2022-11-14T12:35:58;8.60;99.90
36716;DHT22;22699;51.034;3.730;2022-11-14T12:38:31;8.40;99.90
36716;DHT22;22699;51.034;3.730;2022-11-14T12:40:59;8.40;99.90
36716;DHT22;22699;51.034;3.730;2022-11-14T12:43:49;8.30;99.90
36716;DHT22;22699;51.034;3.730;2022-11-14T12:46:14;8.40;99.90
36716;DHT22;22699;51.034;3.730;2022-11-14T12:48:41;8.40;99.90
36716;DHT22;22699;51.034;3.730;2022-11-14T12:54:01;8.20;99.90
36716;DHT22;22699;51.034;3.730;2022-11-14T13:05:02;8.50;99.90
36716;DHT22;22699;51.034;3.730;2022-11-14T13:08:03;8.10;99.90
36716;DHT22;22699;51.034;3.730;2022-11-14T13:10:39;7.90;99.90
36716;DHT22;22699;51.034;3.730;2022-11-14T13:13:09;7.90;99.90
36716;DHT22;22699;51.034;3.730;2022-11-14T13:15:56;8.50;99.90
36716;DHT22;22699;51.034;3.730;2022-11-14T13:27:32;7.80;99.90
36716;DHT22;22699;51.034;3.730;2022-11-14T13:29:58;7.80;99.90
36716;DHT22;22699;51.034;3.730;2022-11-14T13:35:16;7.90;99.90
36716;DHT22;22699;51.034;3.730;2022-11-14T13:41:02;7.70;99.90
36716;DHT22;22699;51.034;3.730;2022-11-14T13:51:51;7.60;99.90
36716;DHT22;22699;51.034;3.730;2022-11-14T13:54:17;8.20;99.90
36716;DHT22;22699;51.034;3.730;2022-11-14T13:59:51;7.60;99.90
36716;DHT22;22699;51.034;3.730;2022-11-14T14:05:20;7.70;99.90
36716;DHT22;22699;51.034;3.730;2022-11-14T14:16:50;7.60;99.90
36716;DHT22;22699;51.034;3.730;2022-11-14T14:23:42;7.60;99.90
36716;DHT22;22699;51.034;3.730;2022-11-14T14:29:41;7.30;99.90
36716;DHT22;22699;51.034;3.730;2022-11-14T14:32:41;7.30;99.90
36716;DHT22;22699;51.034;3.730;2022-11-14T14:35:48;7.40;99.90
36716;DHT22;22699;51.034;3.730;2022-11-14T14:38:34;7.60;99.90
36716;DHT22;22699;51.034;3.730;2022-11-14T14:41:56;7.60;99.90
36716;DHT22;22699;51.034;3.730;2022-11-14T14:45:03;7.50;99.90
36716;DHT22;22699;51.034;3.730;2022-11-14T14:48:02;7.50;99.90
36716;DHT22;22699;51.034;3.730;2022-11-14T14:50:39;7.40;99.90
36716;DHT22;22699;51.034;3.730;2022-11-14T14:53:06;7.50;99.90
36716;DHT22;22699;51.034;3.730;2022-11-14T14:55:33;7.40;99.90
36716;DHT22;22699;51.034;3.730;2022-11-14T14:58:33;7.40;99.90
36716;DHT22;22699;51.034;3.730;2022-11-14T15:01:02;7.90;99.90
36716;DHT22;22699;51.034;3.730;2022-11-14T15:03:36;7.40;99.90
36716;DHT22;22699;51.034;3.730;2022-11-14T15:06:05;7.30;99.90
36716;DHT22;22699;51.034;3.730;2022-11-14T15:08:36;7.40;99.90
36716;DHT22;22699;51.034;3.730;2022-11-14T15:11:02;7.40;99.90
36716;DHT22;22699;51.034;3.730;2022-11-14T15:13:29;7.20;99.90
36716;DHT22;22699;51.034;3.730;2022-11-14T15:15:56;7.70;99.90
36716;DHT22;22699;51.034;3.730;2022-11-14T15:18:27;7.30;99.90
36716;DHT22;22699;51.034;3.730;2022-11-14T15:23:38;7.40;99.90
36716;DHT22;22699;51.034;3.730;2022-11-14T15:26:17;7.30;99.90
36716;DHT22;22699;51.034;3.730;2022-11-14T15:28:43;7.40;99.90
36716;DHT22;22699;51.034;3.730;2022-11-14T15:31:18;7.50;99.90
36716;DHT22;22699;51.034;3.730;2022-11-14T15:33:59;7.50;99.90
36716;DHT22;22699;51.034;3.730;2022-11-14T15:36:25;7.70;99.90
36716;DHT22;22699;51.034;3.730;2022-11-14T15:39:04;7.50;99.90
36716;DHT22;22699;51.034;3.730;2022-11-14T15:41:31;7.40;99.90
36716;DHT22;22699;51.034;3.730;2022-11-14T15:43:57;7.50;99.90
36716;DHT22;22699;51.034;3.730;2022-11-14T15:49:00;7.70;99.90
36716;DHT22;22699;51.034;3.730;2022-11-14T15:51:42;7.50;99.90
36716;DHT22;22699;51.034;3.730;2022-11-14T15:54:39;7.40;99.90
36716;DHT22;22699;51.034;3.730;2022-11-14T15:57:12;7.40;99.90
36716;DHT22;22699;51.034;3.730;2022-11-14T15:59:39;7.60;99.90
36716;DHT22;22699;51.034;3.730;2022-11-14T16:02:23;7.50;99.90
36716;DHT22;22699;51.034;3.730;2022-11-14T16:04:51;7.60;99.90
36716;DHT22;22699;51.034;3.730;2022-11-14T16:07:18;7.50;99.90
36716;DHT22;22699;51.034;3.730;2022-11-14T16:09:45;7.50;99.90
36716;DHT22;22699;51.034;3.730;2022-11-14T16:12:11;8.00;99.90
36716;DHT22;22699;51.034;3.730;2022-11-14T16:14:40;7.50;99.90
36716;DHT22;22699;51.034;3.730;2022-11-14T16:17:11;7.60;99.90
36716;DHT22;22699;51.034;3.730;2022-11-14T16:19:37;8.00;99.90
36716;DHT22;22699;51.034;3.730;2022-11-14T16:22:02;7.60;99.90
36716;DHT22;22699;51.034;3.730;2022-11-14T16:24:29;7.50;99.90
36716;DHT22;22699;51.034;3.730;2022-11-14T16:26:56;7.40;99.90
36716;DHT22;22699;51.034;3.730;2022-11-14T16:29:23;7.50;99.90
36716;DHT22;22699;51.034;3.730;2022-11-14T16:31:49;7.40;99.90
36716;DHT22;22699;51.034;3.730;2022-11-14T16:34:21;7.60;99.90
36716;DHT22;22699;51.034;3.730;2022-11-14T16:36:47;7.60;99.90
36716;DHT22;22699;51.034;3.730;2022-11-14T16:39:14;7.60;99.90
36716;DHT22;22699;51.034;3.730;2022-11-14T16:41:40;7.70;99.90
36716;DHT22;22699;51.034;3.730;2022-11-14T16:44:12;7.80;99.90
36716;DHT22;22699;51.034;3.730;2022-11-14T16:46:38;7.90;99.90
36716;DHT22;22699;51.034;3.730;2022-11-14T16:49:04;7.90;99.90
36716;DHT22;22699;51.034;3.730;2022-11-14T16:51:30;7.90;99.90
36716;DHT22;22699;51.034;3.730;2022-11-14T16:53:55;7.90;99.90
36716;DHT22;22699;51.034;3.730;2022-11-14T16:56:21;8.00;99.90
36716;DHT22;22699;51.034;3.730;2022-11-14T16:58:47;7.80;99.90
36716;DHT22;22699;51.034;3.730;2022-11-14T17:01:17;7.80;99.90
36716;DHT22;22699;51.034;3.730;2022-11-14T17:03:43;7.60;99.90
36716;DHT22;22699;51.034;3.730;2022-11-14T17:06:08;7.60;99.90
36716;DHT22;22699;51.034;3.730;2022-11-14T17:08:36;7.60;99.90
36716;DHT22;22699;51.034;3.730;2022-11-14T17:11:07;7.50;99.90
36716;DHT22;22699;51.034;3.730;2022-11-14T17:13:34;7.60;99.90
36716;DHT22;22699;51.034;3.730;2022-11-14T17:16:00;7.70;99.90
36716;DHT22;22699;51.034;3.730;2022-11-14T17:18:26;7.80;99.90
36716;DHT22;22699;51.034;3.730;2022-11-14T17:20:52;7.60;99.90
36716;DHT22;22699;51.034;3.730;2022-11-14T17:23:18;7.60;99.90
36716;DHT22;22699;51.034;3.730;2022-11-14T17:25:43;7.70;99.90
36716;DHT22;22699;51.034;3.730;2022-11-14T17:28:09;7.70;99.90
36716;DHT22;22699;51.034;3.730;2022-11-14T17:30:42;7.80;99.90
36716;DHT22;22699;51.034;3.730;2022-11-14T17:33:08;7.80;99.90
36716;DHT22;22699;51.034;3.730;2022-11-14T17:35:34;7.90;99.90
36716;DHT22;22699;51.034;3.730;2022-11-14T17:38:00;8.00;99.90
36716;DHT22;22699;51.034;3.730;2022-11-14T17:40:26;8.10;99.90
36716;DHT22;22699;51.034;3.730;2022-11-14T17:42:52;8.10;99.90
36716;DHT22;22699;51.034;3.730;2022-11-14T17:45:17;8.10;99.90
36716;DHT22;22699;51.034;3.730;2022-11-14T17:47:44;8.30;99.90
36716;DHT22;22699;51.034;3.730;2022-11-14T17:50:09;8.30;99.90
36716;DHT22;22699;51.034;3.730;2022-11-14T17:52:35;8.30;99.90
36716;DHT22;22699;51.034;3.730;2022-11-14T17:55:01;8.30;99.90
36716;DHT22;22699;51.034;3.730;2022-11-14T17:57:27;8.20;99.90